Wheatley, Canada
Current Conditions -  °F | °C
As of 3:00 PM on Monday 26 Jan 2015 (Local Time) from CYCK Reporting Station
Clear Clear  
Wind Chill:   Ceiling: Unl
Heat Index: 19°   Visibility: 9mi
Dew Point: 12°   Wind: 10mph
Humidity: 74%   Direction: 350°N
Pressure: 29.88"   Gusts: NA
Location:  42.1°N, 82.45°W
Report Text: CYCK 262000Z AUTO 35009KT 9SM CLR M07/M11 A2988 RMK SLP130
Loading
Personal Weather Stations






























Interactive Weather Map New forecast layout! Learn more

10-Day Weather Forecast

Advertisements
Track Severe Weather on mobile